createdAt,value
2023-05-10T00:01:44.282Z,66.33
2023-05-10T00:04:11.241Z,65.49
2023-05-10T00:06:40.118Z,65.96
2023-05-10T00:09:09.032Z,65.84
2023-05-10T00:11:35.872Z,66.70
2023-05-10T00:14:04.797Z,67.00
2023-05-10T00:16:33.605Z,66.39
2023-05-10T00:19:02.463Z,65.38
2023-05-10T00:21:29.470Z,68.21
2023-05-10T00:23:56.162Z,68.14
2023-05-10T00:26:24.887Z,67.54
2023-05-10T00:28:51.434Z,68.02
2023-05-10T00:31:20.119Z,68.32
2023-05-10T00:33:46.696Z,67.85
2023-05-10T00:36:13.278Z,67.00
2023-05-10T00:38:39.821Z,67.55
2023-05-10T00:41:10.905Z,66.87
2023-05-10T00:43:39.755Z,67.18
2023-05-10T00:46:07.051Z,66.80
2023-05-10T00:48:36.374Z,67.40
2023-05-10T00:51:07.043Z,67.28
2023-05-10T00:53:36.421Z,68.28
2023-05-10T00:56:04.246Z,67.55
2023-05-10T00:58:36.072Z,67.51
2023-05-10T01:01:08.438Z,67.92
2023-05-10T01:03:37.713Z,68.69
2023-05-10T01:06:06.892Z,69.57
2023-05-10T01:08:38.790Z,68.97
2023-05-10T01:11:13.394Z,69.55
2023-05-10T01:13:43.339Z,70.23
2023-05-10T01:16:12.646Z,69.98
2023-05-10T01:18:42.076Z,69.39
2023-05-10T01:21:42.869Z,70.35
2023-05-10T01:24:46.913Z,70.31
2023-05-10T01:27:26.041Z,71.23
2023-05-10T01:30:14.017Z,70.30
2023-05-10T01:32:56.791Z,71.52
2023-05-10T01:35:33.570Z,71.84
2023-05-10T01:38:18.021Z,71.04
2023-05-10T01:41:12.266Z,71.25
2023-05-10T01:43:49.599Z,71.52
2023-05-10T01:46:21.694Z,71.26
2023-05-10T01:48:55.134Z,71.90
2023-05-10T01:51:26.241Z,71.97
2023-05-10T01:54:02.388Z,71.14
2023-05-10T01:56:31.971Z,71.21
2023-05-10T01:59:00.223Z,72.48
2023-05-10T02:01:28.235Z,72.56
2023-05-10T02:03:56.324Z,72.42
2023-05-10T02:06:24.791Z,71.81
2023-05-10T02:08:55.637Z,72.19
2023-05-10T02:11:23.502Z,72.89
2023-05-10T02:13:52.694Z,73.07
2023-05-10T02:16:22.046Z,72.57
2023-05-10T02:18:49.768Z,73.93
2023-05-10T02:21:17.831Z,74.46
2023-05-10T02:23:48.451Z,73.95
2023-05-10T02:26:17.032Z,74.01
2023-05-10T02:28:46.694Z,73.30
2023-05-10T02:31:14.203Z,73.76
2023-05-10T02:33:44.557Z,74.07
2023-05-10T02:36:18.399Z,73.44
2023-05-10T02:38:49.272Z,72.74
2023-05-10T02:41:16.351Z,72.08
2023-05-10T02:43:50.701Z,71.02
2023-05-10T02:46:19.937Z,70.19
2023-05-10T02:48:49.112Z,70.59
2023-05-10T02:51:18.630Z,70.13
2023-05-10T02:53:50.520Z,70.50
2023-05-10T02:56:32.212Z,70.45
2023-05-10T02:58:58.943Z,70.18
2023-05-10T03:01:25.632Z,69.85
2023-05-10T03:03:54.982Z,70.58
2023-05-10T03:06:26.484Z,69.73
2023-05-10T03:08:55.657Z,69.73
2023-05-10T03:11:33.183Z,70.52
2023-05-10T03:14:18.593Z,69.73
2023-05-10T03:17:00.711Z,70.28
2023-05-10T03:19:42.637Z,69.85
2023-05-10T03:22:14.217Z,69.42
2023-05-10T03:24:42.266Z,69.66
2023-05-10T03:27:12.754Z,69.37
2023-05-10T03:29:40.637Z,69.54
2023-05-10T03:32:07.482Z,69.26
2023-05-10T03:34:34.054Z,69.06
2023-05-10T03:37:00.824Z,68.56
2023-05-10T03:39:30.156Z,69.07
2023-05-10T03:41:59.206Z,69.20
2023-05-10T03:44:25.718Z,71.25
2023-05-10T03:46:52.460Z,71.19
2023-05-10T03:49:21.620Z,70.61
2023-05-10T03:51:48.042Z,70.27
2023-05-10T03:54:14.548Z,70.35
2023-05-10T03:56:46.165Z,69.73
2023-05-10T03:59:17.356Z,70.61
2023-05-10T04:01:44.396Z,70.47
2023-05-10T04:04:13.396Z,71.62
2023-05-10T04:06:40.215Z,72.84
2023-05-10T04:09:06.887Z,70.54
2023-05-10T04:11:35.948Z,71.01
2023-05-10T04:14:05.291Z,70.54
2023-05-10T04:16:32.112Z,70.70
2023-05-10T04:19:01.076Z,70.88
2023-05-10T04:21:29.891Z,69.34
2023-05-10T04:23:56.436Z,70.04
2023-05-10T04:26:27.572Z,69.61
2023-05-10T04:28:56.795Z,68.78
2023-05-10T04:31:25.724Z,68.55
2023-05-10T04:33:52.691Z,68.13
2023-05-10T04:36:22.378Z,68.33
2023-05-10T04:38:51.237Z,68.65
2023-05-10T04:41:20.146Z,69.53
2023-05-10T04:43:50.465Z,68.75
2023-05-10T04:46:19.218Z,69.48
2023-05-10T04:48:45.848Z,69.40
2023-05-10T04:51:12.548Z,68.48
2023-05-10T04:53:43.084Z,67.48
2023-05-10T04:56:15.997Z,66.72
2023-05-10T04:58:42.577Z,66.16
2023-05-10T05:01:09.527Z,68.20
2023-05-10T05:03:36.553Z,67.78
2023-05-10T05:06:03.929Z,67.13
2023-05-10T05:08:30.493Z,65.87
2023-05-10T05:10:57.099Z,66.35
2023-05-10T05:13:25.902Z,67.27
2023-05-10T05:15:52.705Z,67.07
2023-05-10T05:18:19.497Z,66.46
2023-05-10T05:20:46.077Z,67.19
2023-05-10T05:23:12.665Z,65.75
2023-05-10T05:25:43.825Z,65.38
2023-05-10T05:28:12.734Z,65.64
2023-05-10T05:30:39.306Z,66.90
2023-05-10T05:33:05.940Z,65.42
2023-05-10T05:35:32.513Z,66.47
2023-05-10T05:37:59.100Z,65.71
2023-05-10T05:40:27.983Z,65.13
2023-05-10T05:42:54.574Z,64.66
2023-05-10T05:45:23.567Z,64.82
2023-05-10T05:47:50.348Z,65.70
2023-05-10T05:50:19.244Z,64.59
2023-05-10T05:52:45.805Z,63.21
2023-05-10T05:55:12.895Z,64.10
2023-05-10T05:57:41.536Z,63.44
2023-05-10T06:00:08.769Z,63.95
2023-05-10T06:02:35.536Z,63.00
2023-05-10T06:05:02.281Z,64.30
2023-05-10T06:07:28.859Z,64.06
2023-05-10T06:09:55.591Z,63.29
2023-05-10T06:12:24.394Z,64.97
2023-05-10T06:14:54.033Z,63.90
2023-05-10T06:17:23.264Z,63.08
2023-05-10T06:19:49.805Z,60.75
2023-05-10T06:22:18.849Z,63.54
2023-05-10T06:24:49.995Z,62.41
2023-05-10T06:27:19.045Z,60.57
2023-05-10T06:29:45.461Z,61.64
2023-05-10T06:32:14.346Z,62.21
2023-05-10T06:34:41.016Z,60.96
2023-05-10T06:37:09.938Z,59.45
2023-05-10T06:39:36.532Z,60.12
2023-05-10T06:42:05.583Z,59.58
2023-05-10T06:44:34.523Z,60.26
2023-05-10T06:47:01.304Z,60.48
2023-05-10T06:49:27.913Z,59.65
2023-05-10T06:51:57.166Z,58.20
2023-05-10T06:54:26.315Z,59.28
2023-05-10T06:56:55.179Z,58.61
2023-05-10T06:59:22.868Z,56.96
2023-05-10T07:01:54.814Z,58.09
2023-05-10T07:04:21.678Z,57.75
2023-05-10T07:06:48.576Z,57.17
2023-05-10T07:09:15.152Z,57.92
2023-05-10T07:11:44.219Z,57.74
2023-05-10T07:14:10.864Z,55.58
2023-05-10T07:16:40.302Z,58.18
2023-05-10T07:19:09.329Z,58.27
2023-05-10T07:21:36.335Z,61.19
2023-05-10T07:24:03.495Z,56.72
2023-05-10T07:26:30.694Z,56.48
2023-05-10T07:28:57.396Z,57.99
2023-05-10T07:31:23.976Z,58.93
2023-05-10T07:33:53.082Z,59.12
2023-05-10T07:36:22.175Z,56.36
2023-05-10T07:38:48.764Z,56.55
2023-05-10T07:41:15.409Z,55.64
2023-05-10T07:43:44.704Z,55.18
2023-05-10T07:46:16.253Z,55.98
2023-05-10T07:48:45.100Z,53.59
2023-05-10T07:51:11.916Z,54.35
2023-05-10T07:53:41.545Z,52.76
2023-05-10T07:56:30.741Z,54.53
2023-05-10T07:58:57.850Z,55.52
2023-05-10T08:01:25.339Z,53.58
2023-05-10T08:03:52.566Z,54.78
2023-05-10T08:06:23.175Z,54.92
2023-05-10T08:08:51.524Z,54.86
2023-05-10T08:11:18.740Z,55.18
2023-05-10T08:13:48.761Z,55.63
2023-05-10T08:16:15.770Z,55.17
2023-05-10T08:18:42.556Z,55.71
2023-05-10T08:21:09.222Z,53.93
2023-05-10T08:23:36.078Z,52.82
2023-05-10T08:26:02.744Z,52.50
2023-05-10T08:28:29.571Z,51.31
2023-05-10T08:30:58.691Z,52.54
2023-05-10T08:33:26.349Z,51.82
2023-05-10T08:35:55.351Z,52.77
2023-05-10T08:38:22.002Z,53.41
2023-05-10T08:40:51.846Z,52.58
2023-05-10T08:43:19.395Z,48.68
2023-05-10T08:45:48.042Z,50.65
2023-05-10T08:48:15.196Z,49.91
2023-05-10T08:50:45.749Z,50.64
2023-05-10T08:53:16.059Z,51.56
2023-05-10T08:55:45.417Z,51.56
2023-05-10T08:58:12.129Z,51.20
2023-05-10T09:00:41.311Z,51.70
2023-05-10T09:03:08.208Z,51.46
2023-05-10T09:05:37.315Z,50.16
2023-05-10T09:08:04.291Z,51.52
2023-05-10T09:10:32.067Z,49.84
2023-05-10T09:12:59.638Z,50.36
2023-05-10T09:15:27.130Z,49.25
2023-05-10T09:17:56.570Z,49.30
2023-05-10T09:20:23.600Z,48.89
2023-05-10T09:22:52.492Z,47.03
2023-05-10T09:25:19.426Z,46.12
2023-05-10T09:27:49.634Z,47.69
2023-05-10T09:30:27.457Z,48.74
2023-05-10T09:32:58.174Z,47.37
2023-05-10T09:35:29.458Z,48.00
2023-05-10T09:37:58.290Z,48.22
2023-05-10T09:40:26.648Z,46.72
2023-05-10T09:43:08.706Z,46.01
2023-05-10T09:45:38.538Z,46.83
2023-05-10T09:48:08.783Z,47.15
2023-05-10T09:50:37.756Z,46.44
2023-05-10T09:53:07.781Z,46.88
2023-05-10T09:55:39.652Z,47.05
2023-05-10T09:58:11.965Z,45.85
2023-05-10T10:00:40.607Z,47.66
2023-05-10T10:03:13.137Z,47.39
2023-05-10T10:05:45.106Z,47.47
2023-05-10T10:08:13.248Z,46.99
2023-05-10T10:10:46.942Z,46.67
2023-05-10T10:13:16.673Z,46.89
2023-05-10T10:15:45.281Z,45.91
2023-05-10T10:18:16.685Z,44.17
2023-05-10T10:20:43.856Z,43.95
2023-05-10T10:23:11.120Z,43.79
2023-05-10T10:25:41.403Z,43.49
2023-05-10T10:28:46.952Z,43.57
2023-05-10T10:31:25.668Z,44.39
2023-05-10T10:34:12.153Z,43.93
2023-05-10T10:36:48.128Z,45.61
2023-05-10T10:39:15.444Z,43.92
2023-05-10T10:41:54.974Z,45.38
2023-05-10T10:44:37.941Z,44.61
2023-05-10T10:47:15.552Z,43.02
2023-05-10T10:49:42.648Z,42.02
2023-05-10T10:52:24.109Z,42.63
2023-05-10T10:54:55.812Z,41.77
2023-05-10T10:57:27.677Z,41.60
2023-05-10T11:00:23.256Z,41.61
2023-05-10T11:03:00.975Z,43.98
2023-05-10T11:05:33.717Z,40.56
2023-05-10T11:08:01.406Z,40.86
2023-05-10T11:10:30.931Z,41.60
2023-05-10T11:13:07.384Z,40.47
2023-05-10T11:15:41.814Z,39.00
2023-05-10T11:18:28.541Z,39.16
2023-05-10T11:21:11.680Z,38.89
2023-05-10T11:23:41.358Z,39.95
2023-05-10T11:26:12.330Z,39.34
2023-05-10T11:28:50.018Z,39.08
2023-05-10T11:31:18.464Z,37.72
2023-05-10T11:33:51.067Z,37.10
2023-05-10T11:36:20.651Z,35.63
2023-05-10T11:38:48.702Z,35.88
2023-05-10T11:41:20.102Z,35.98
2023-05-10T11:43:56.763Z,34.24
2023-05-10T11:46:25.161Z,34.43
2023-05-10T11:48:58.891Z,36.00
2023-05-10T11:51:30.257Z,36.03
2023-05-10T11:53:58.260Z,36.74
2023-05-10T11:56:28.008Z,36.79
2023-05-10T11:58:56.991Z,37.53
2023-05-10T12:01:27.638Z,36.45
2023-05-10T12:03:59.925Z,36.97
2023-05-10T12:06:32.905Z,36.65
2023-05-10T12:09:04.824Z,36.19
2023-05-10T12:11:31.874Z,37.09
2023-05-10T12:13:58.946Z,35.94
2023-05-10T12:16:29.285Z,36.02
2023-05-10T12:19:00.931Z,34.81
2023-05-10T12:21:29.803Z,35.40
2023-05-10T12:24:03.145Z,36.30
2023-05-10T12:26:30.463Z,36.85
2023-05-10T12:29:13.225Z,37.87
2023-05-10T12:31:59.754Z,38.84
2023-05-10T12:34:34.023Z,39.13
2023-05-10T12:37:03.611Z,38.82
2023-05-10T12:39:41.374Z,39.25
2023-05-10T12:42:14.129Z,39.35
2023-05-10T12:44:43.346Z,39.23
2023-05-10T12:47:10.031Z,37.71
2023-05-10T12:49:36.649Z,38.96
2023-05-10T12:52:07.898Z,38.81
2023-05-10T12:54:35.029Z,37.87
2023-05-10T12:57:02.041Z,38.22
2023-05-10T12:59:28.588Z,36.30
2023-05-10T13:02:00.358Z,37.62
2023-05-10T13:04:29.359Z,37.65
2023-05-10T13:07:00.004Z,38.39
2023-05-10T13:09:30.628Z,38.43
2023-05-10T13:11:59.910Z,38.65
2023-05-10T13:14:26.833Z,38.43
2023-05-10T13:16:53.499Z,37.87
2023-05-10T13:19:20.882Z,36.61
2023-05-10T13:21:48.116Z,36.20
2023-05-10T13:24:14.941Z,37.70
2023-05-10T13:26:42.107Z,37.23
2023-05-10T13:29:09.100Z,37.16
2023-05-10T13:31:38.484Z,37.95
2023-05-10T13:34:06.559Z,37.47
2023-05-10T13:36:33.134Z,37.99
2023-05-10T13:39:04.396Z,38.22
2023-05-10T13:41:31.031Z,36.58
2023-05-10T13:43:57.982Z,34.85
2023-05-10T13:46:26.898Z,36.95
2023-05-10T13:48:53.865Z,36.43
2023-05-10T13:51:20.502Z,35.63
2023-05-10T13:53:49.486Z,36.66
2023-05-10T13:56:16.299Z,36.72
2023-05-10T13:58:45.358Z,36.92
2023-05-10T14:01:14.489Z,36.42
2023-05-10T14:03:41.333Z,36.51
2023-05-10T14:06:08.778Z,36.43
2023-05-10T14:08:36.498Z,36.84
2023-05-10T14:11:05.513Z,36.75
2023-05-10T14:13:32.359Z,35.96
2023-05-10T14:16:01.476Z,35.49
2023-05-10T14:18:28.435Z,36.15
2023-05-10T14:20:55.639Z,34.68
2023-05-10T14:23:25.418Z,36.04
2023-05-10T14:25:53.426Z,34.00
2023-05-10T14:28:21.267Z,34.83
2023-05-10T14:30:52.667Z,34.73
2023-05-10T14:33:21.962Z,35.34
2023-05-10T14:35:51.550Z,34.45
2023-05-10T14:38:20.598Z,34.44
2023-05-10T14:40:47.173Z,33.35
2023-05-10T14:43:13.765Z,32.86
2023-05-10T14:45:40.423Z,32.90
2023-05-10T14:48:07.270Z,32.16
2023-05-10T14:50:37.148Z,32.73
2023-05-10T14:53:04.349Z,33.03
2023-05-10T14:55:39.363Z,33.14
2023-05-10T14:58:06.297Z,34.88
2023-05-10T15:00:35.330Z,33.53
2023-05-10T15:03:02.544Z,33.17
2023-05-10T15:05:29.508Z,33.41
2023-05-10T15:07:58.798Z,34.09
2023-05-10T15:10:26.269Z,35.25
2023-05-10T15:12:55.406Z,35.25
2023-05-10T15:15:21.995Z,35.24
2023-05-10T15:17:49.148Z,35.93
2023-05-10T15:20:15.774Z,35.32
2023-05-10T15:22:42.569Z,36.24
2023-05-10T15:25:14.184Z,35.92
2023-05-10T15:27:44.652Z,34.84
2023-05-10T15:30:14.275Z,35.34
2023-05-10T15:32:43.889Z,36.02
2023-05-10T15:35:42.378Z,35.14
2023-05-10T15:38:11.526Z,35.15
2023-05-10T15:40:38.079Z,34.65
2023-05-10T15:43:07.460Z,34.77
2023-05-10T15:45:35.921Z,34.83
2023-05-10T15:48:04.448Z,33.84
2023-05-10T15:50:33.572Z,33.33
2023-05-10T15:53:03.007Z,32.73
2023-05-10T15:55:35.332Z,31.06
2023-05-10T15:58:02.016Z,32.75
2023-05-10T16:00:31.363Z,33.48
2023-05-10T16:02:58.287Z,34.04
2023-05-10T16:05:25.128Z,34.92
2023-05-10T16:07:51.680Z,35.46
2023-05-10T16:10:25.619Z,34.92
2023-05-10T16:12:53.271Z,34.48
2023-05-10T16:15:21.800Z,35.02
2023-05-10T16:17:48.691Z,35.47
2023-05-10T16:20:20.114Z,37.17
2023-05-10T16:22:46.781Z,36.42
2023-05-10T16:25:16.610Z,37.52
2023-05-10T16:27:44.439Z,35.94
2023-05-10T16:30:14.353Z,36.50
2023-05-10T16:32:43.276Z,36.68
2023-05-10T16:35:12.266Z,35.92
2023-05-10T16:37:38.914Z,37.17
2023-05-10T16:40:08.789Z,36.78
2023-05-10T16:42:37.838Z,36.11
2023-05-10T16:45:07.741Z,35.87
2023-05-10T16:47:35.573Z,35.98
2023-05-10T16:50:03.314Z,35.80
2023-05-10T16:52:33.172Z,37.25
2023-05-10T16:54:59.927Z,38.27
2023-05-10T16:57:26.690Z,39.50
2023-05-10T16:59:56.623Z,39.96
2023-05-10T17:02:23.690Z,39.99
2023-05-10T17:04:56.165Z,40.07
2023-05-10T17:07:25.464Z,41.20
2023-05-10T17:09:52.939Z,41.17
2023-05-10T17:12:19.526Z,41.08
2023-05-10T17:14:46.135Z,41.20
2023-05-10T17:17:15.681Z,41.25
2023-05-10T17:19:45.377Z,42.74
2023-05-10T17:22:15.179Z,42.69
2023-05-10T17:24:41.874Z,43.26
2023-05-10T17:27:11.274Z,42.81
2023-05-10T17:29:40.155Z,43.64
2023-05-10T17:32:09.036Z,43.57
2023-05-10T17:34:41.269Z,44.13
2023-05-10T17:37:10.384Z,43.96
2023-05-10T17:39:51.083Z,44.61
2023-05-10T17:42:20.953Z,44.45
2023-05-10T17:44:47.626Z,44.61
2023-05-10T17:47:14.197Z,44.44
2023-05-10T17:49:40.913Z,45.84
2023-05-10T17:52:07.559Z,44.65
2023-05-10T17:54:36.500Z,44.82
2023-05-10T17:57:03.773Z,45.07
2023-05-10T17:59:31.761Z,44.96
2023-05-10T18:05:47.481Z,45.47
2023-05-10T18:08:30.232Z,45.78
2023-05-10T18:10:57.417Z,45.38
2023-05-10T18:23:36.240Z,45.37
2023-05-10T18:29:38.918Z,45.62
2023-05-10T18:36:38.222Z,44.89
2023-05-10T18:39:07.302Z,45.55
2023-05-10T18:41:39.850Z,45.86
2023-05-10T18:44:17.229Z,45.45
2023-05-10T18:46:44.034Z,45.16
2023-05-10T18:52:59.739Z,45.06
2023-05-10T18:55:28.902Z,45.83
2023-05-10T18:58:01.721Z,45.28
2023-05-10T19:04:16.406Z,44.85
2023-05-10T19:13:50.577Z,44.11
2023-05-10T19:16:23.413Z,45.22
2023-05-10T19:18:51.296Z,44.65
2023-05-10T19:21:20.656Z,44.72
2023-05-10T19:23:50.144Z,44.89
2023-05-10T19:26:16.757Z,44.78
2023-05-10T19:28:43.337Z,44.83
2023-05-10T19:31:12.252Z,45.04
2023-05-10T19:33:38.913Z,45.47
2023-05-10T19:36:05.607Z,44.39
2023-05-10T19:38:34.432Z,43.99
2023-05-10T19:41:03.225Z,44.35
2023-05-10T19:43:34.241Z,44.17
2023-05-10T19:46:06.506Z,44.24
2023-05-10T19:48:33.084Z,45.26
2023-05-10T19:51:10.018Z,45.33
2023-05-10T19:53:36.904Z,45.98
2023-05-10T19:56:09.183Z,45.97
2023-05-10T19:58:35.755Z,46.41
2023-05-10T20:01:02.930Z,46.92
2023-05-10T20:03:30.216Z,46.23
2023-05-10T20:05:56.790Z,47.63
2023-05-10T20:08:23.374Z,47.16
2023-05-10T20:10:49.954Z,47.94
2023-05-10T20:13:19.237Z,47.49
2023-05-10T20:15:46.718Z,47.45
2023-05-10T20:18:13.371Z,47.53
2023-05-10T20:20:46.220Z,47.71
2023-05-10T20:23:12.792Z,48.17
2023-05-10T20:25:39.375Z,48.44
2023-05-10T20:28:07.998Z,48.39
2023-05-10T20:30:34.585Z,47.89
2023-05-10T20:33:01.460Z,47.54
2023-05-10T20:35:28.056Z,48.30
2023-05-10T20:37:56.970Z,47.56
2023-05-10T20:40:23.634Z,47.17
2023-05-10T20:42:52.076Z,48.12
2023-05-10T20:45:21.822Z,48.19
2023-05-10T20:47:48.670Z,48.79
2023-05-10T20:50:15.497Z,48.19
2023-05-10T20:52:42.261Z,49.08
2023-05-10T20:55:09.550Z,48.27
2023-05-10T20:57:43.494Z,47.86
2023-05-10T21:00:10.548Z,48.72
2023-05-10T21:02:37.154Z,48.11
2023-05-10T21:05:03.963Z,47.99
2023-05-10T21:07:32.839Z,47.52
2023-05-10T21:10:01.710Z,47.42
2023-05-10T21:12:31.314Z,47.19
2023-05-10T21:15:02.660Z,47.38
2023-05-10T21:17:29.265Z,47.28
2023-05-10T21:19:55.851Z,47.44
2023-05-10T21:22:25.461Z,47.02
2023-05-10T21:24:52.094Z,47.15
2023-05-10T21:27:18.669Z,46.68
2023-05-10T21:29:45.812Z,47.15
2023-05-10T21:32:12.429Z,46.73
2023-05-10T21:34:38.985Z,46.45
2023-05-10T21:37:07.774Z,47.91
2023-05-10T21:39:37.071Z,47.23
2023-05-10T21:42:04.028Z,46.70
2023-05-10T21:44:31.860Z,46.58
2023-05-10T21:47:01.110Z,46.54
2023-05-10T21:49:27.721Z,46.31
2023-05-10T21:51:54.891Z,47.05
2023-05-10T21:54:23.804Z,46.17
2023-05-10T21:56:50.426Z,46.64
2023-05-10T21:59:18.255Z,46.01
2023-05-10T22:01:47.168Z,46.37
2023-05-10T22:04:16.789Z,46.30
2023-05-10T22:06:45.648Z,46.15
2023-05-10T22:09:12.204Z,45.56
2023-05-10T22:11:38.795Z,45.47
2023-05-10T22:14:07.634Z,45.66
2023-05-10T22:16:34.333Z,46.18
2023-05-10T22:19:01.231Z,45.16
2023-05-10T22:21:27.830Z,45.51
2023-05-10T22:23:54.440Z,45.88
2023-05-10T22:26:22.180Z,46.04
2023-05-10T22:28:51.005Z,46.06
2023-05-10T22:31:19.840Z,45.93
2023-05-10T22:33:48.790Z,46.26
2023-05-10T22:36:19.833Z,47.03
2023-05-10T22:38:48.893Z,46.10
2023-05-10T22:41:17.835Z,46.38
2023-05-10T22:43:44.988Z,46.59
2023-05-10T22:46:11.556Z,47.17
2023-05-10T22:48:38.239Z,46.11
2023-05-10T22:51:07.096Z,46.57
2023-05-10T22:53:36.087Z,47.36
2023-05-10T22:56:05.094Z,47.67
2023-05-10T22:58:31.779Z,48.40
2023-05-10T23:01:00.964Z,47.88
2023-05-10T23:03:29.788Z,48.83
2023-05-10T23:05:56.365Z,48.23
2023-05-10T23:08:22.911Z,49.18
2023-05-10T23:10:49.529Z,49.62
2023-05-10T23:13:18.788Z,49.97
2023-05-10T23:15:46.607Z,49.34
2023-05-10T23:18:13.251Z,49.30
2023-05-10T23:20:45.307Z,48.80
2023-05-10T23:23:11.996Z,50.09
2023-05-10T23:25:38.845Z,49.74
2023-05-10T23:28:05.616Z,51.05
2023-05-10T23:30:32.259Z,50.99
2023-05-10T23:33:01.365Z,51.17
2023-05-10T23:35:31.005Z,50.46
2023-05-10T23:37:57.663Z,51.37
2023-05-10T23:40:26.569Z,51.74
2023-05-10T23:42:55.235Z,51.06
2023-05-10T23:45:24.601Z,51.09
2023-05-10T23:47:53.568Z,52.14
2023-05-10T23:50:20.095Z,51.67
2023-05-10T23:52:49.716Z,52.70
2023-05-10T23:55:16.470Z,54.37
2023-05-10T23:57:43.635Z,53.96
